Flight Track Log - Related Links

Times and Time Zones

All times are in EST time to prevent confusion due to time zone crossing. See the UPS2062 flight status page for this flight to view local times or setup timezone preferences in your user account.

Time Position Orientation Groundspeed Altitude Reporting Facility
EST Latitude Longitude Course Direction KTS MPH feet Rate Location/Type
Mon 04:33:54 PM 38.1500 -85.7333 46° Northeast 173 199 2,100  Level Louisville TRACON
Mon 04:35:21 PM 38.0644 -85.7106 168° South 238 274 5,000 2,432 Climbing Indianapolis Center
Mon 04:36:22 PM 38.0381 -85.7778 244° Southwest 247 284 8,100 2,439 Climbing Indianapolis Center
Mon 04:37:24 PM 38.1011 -85.8175 334° Northwest 259 298 10,000 2,129 Climbing Indianapolis Center
Mon 04:38:26 PM 38.1931 -85.8158 North 331 381 12,500 2,903 Climbing Indianapolis Center
Mon 04:39:00 PM 38.4216 -85.0464 46° Northeast  Level Estimated
Mon 04:39:28 PM 38.2808 -85.7233 40° Northeast 415 478 16,000  Level Indianapolis Center
Mon 04:40:30 PM 38.3703 -85.6206 42° Northeast 431 496 19,400 3,194 Climbing Indianapolis Center
Mon 04:41:32 PM 38.4847 -85.4900 42° Northeast 456 525 22,600 2,661 Climbing Indianapolis Center
Mon 04:42:34 PM 38.5881 -85.3775 40° Northeast 480 552 24,900 2,032 Climbing Indianapolis Center
Mon 04:43:36 PM 38.6861 -85.2700 41° Northeast 494 568 26,800 1,016 Climbing Indianapolis Center
Mon 04:44:38 PM 38.7944 -85.1519 40° Northeast 509 586 27,000 97 Climbing Indianapolis Center
Mon 04:45:40 PM 38.9006 -85.0331 41° Northeast 512 589 27,000 677 Level Indianapolis Center
Mon 04:46:42 PM 39.0278 -84.8906 41° Northeast 510 587 28,400 2,371 Climbing Indianapolis Center
Mon 04:47:44 PM 39.1356 -84.7708 41° Northeast 508 585 31,900 2,244 Climbing Indianapolis Center
Mon 04:48:45 PM 39.2364 -84.6567 41° Northeast 488 562 33,000 537 Climbing Indianapolis Center
Mon 04:49:47 PM 39.3433 -84.5367 41° Northeast 504 580 33,000  Level Indianapolis Center
Mon 04:50:49 PM 39.4511 -84.4147 41° Northeast 512 589 33,000  Level Indianapolis Center
Mon 04:51:51 PM 39.5594 -84.2919 41° Northeast 516 594 33,000  Level Indianapolis Center
Mon 04:52:53 PM 39.6708 -84.1217 50° Northeast 526 605 33,000  Level Indianapolis Center
Mon 04:53:55 PM 39.7550 -83.9678 55° Northeast 524 603 33,000  Level Indianapolis Center
Mon 04:54:57 PM 39.8422 -83.8136 54° Northeast 526 605 33,000  Level Indianapolis Center
Mon 04:55:59 PM 39.9308 -83.6589 53° Northeast 524 603 33,000  Level Indianapolis Center
Mon 04:57:01 PM 40.0169 -83.4967 55° Northeast 530 610 33,000  Level Indianapolis Center
Mon 04:58:03 PM 40.1025 -83.3361 55° Northeast 531 611 33,000  Level Indianapolis Center
Mon 04:59:05 PM 40.1869 -83.1767 55° Northeast 531 611 33,000  Level Indianapolis Center
Mon 05:00:07 PM 40.2711 -83.0169 55° Northeast 532 612 33,000  Level Indianapolis Center
Mon 05:01:09 PM 40.3547 -82.8575 55° Northeast 532 612 33,000  Level Indianapolis Center
Mon 05:02:10 PM 40.4456 -82.6831 56° Northeast 535 616 33,000  Level Indianapolis Center
Mon 05:03:12 PM 40.5289 -82.5214 56° Northeast 532 612 33,000  Level Indianapolis Center
Mon 05:04:14 PM 40.6261 -82.3333 56° Northeast 530 610 33,000  Level Indianapolis Center
Mon 05:05:16 PM 40.7089 -82.1692 56° Northeast 533 613 33,000  Level Indianapolis Center
Mon 05:06:18 PM 40.7917 -82.0081 56° Northeast 530 610 33,000  Level Indianapolis Center
Mon 05:07:20 PM 40.8731 -81.8464 56° Northeast 528 608 33,000  Level Indianapolis Center
Mon 05:08:22 PM 40.9550 -81.6839 56° Northeast 529 609 33,000  Level Indianapolis Center
Mon 05:09:24 PM 41.0367 -81.5208 56° Northeast 532 612 33,000  Level Indianapolis Center
Mon 05:10:26 PM 41.1303 -81.3331 56° Northeast 528 608 33,000  Level Indianapolis Center
Mon 05:11:28 PM 41.2111 -81.1675 57° Northeast 533 613 33,000  Level Indianapolis Center
Mon 05:12:30 PM 41.2928 -81.0036 56° Northeast 532 612 33,000  Level Indianapolis Center
Mon 05:13:49 PM 41.4003 -80.7828 57° Northeast 533 613 33,000  Level Cleveland Center
Mon 05:14:51 PM 41.4800 -80.6175 57° Northeast 530 610 33,000  Level Cleveland Center
Mon 05:15:53 PM 41.5611 -80.4497 57° Northeast 533 613 33,000  Level Cleveland Center
Mon 05:16:55 PM 41.6364 -80.2931 57° Northeast 532 612 33,000  Level Cleveland Center
Mon 05:17:57 PM 41.7236 -80.1156 57° Northeast 532 612 33,000  Level Cleveland Center
Mon 05:18:59 PM 41.8019 -79.9458 58° Northeast 532 612 33,000  Level Cleveland Center
Mon 05:20:01 PM 41.8828 -79.7406 62° Northeast 537 618 33,000  Level Cleveland Center
Mon 05:21:02 PM 41.9194 -79.5464 76° East 533 613 33,000  Level Cleveland Center
Mon 05:22:04 PM 41.9606 -79.3528 74° East 538 619 33,000  Level Cleveland Center
Mon 05:23:06 PM 42.0019 -79.1589 74° East 540 621 33,000  Level Cleveland Center
Mon 05:24:08 PM 42.0417 -78.9664 74° East 536 617 33,000  Level Cleveland Center
Mon 05:25:10 PM 42.0764 -78.7681 77° East 541 623 33,000  Level Cleveland Center
Mon 05:26:12 PM 42.1108 -78.5706 77° East 542 624 33,000  Level Cleveland Center
Mon 05:27:14 PM 42.1531 -78.3361 76° East 539 620 33,000  Level Cleveland Center
Mon 05:28:16 PM 42.1836 -78.1689 76° East 538 619 33,000  Level Cleveland Center
Mon 05:29:17 PM 42.2247 -77.9367 76° East 537 618 33,000  Level Cleveland Center
Mon 05:30:19 PM 42.2592 -77.7417 77° East 540 621 33,000  Level Cleveland Center
Mon 05:31:21 PM 42.2925 -77.5469 77° East 541 623 33,000  Level Cleveland Center
Mon 05:32:23 PM 42.3239 -77.3503 78° East 544 626 33,000  Level Cleveland Center
Mon 05:33:25 PM 42.3642 -77.1142 77° East 543 625 33,000  Level Cleveland Center
Mon 05:34:27 PM 42.3958 -76.9142 78° East 547 629 33,000  Level Cleveland Center
Mon 05:35:29 PM 42.4286 -76.7147 77° East 547 629 33,000  Level Cleveland Center
Mon 05:36:31 PM 42.4603 -76.5144 78° East 546 628 33,000  Level Cleveland Center
Mon 05:37:33 PM 42.4961 -76.2889 78° East 548 631 33,000 -97 Level Cleveland Center
Mon 05:38:35 PM 42.5067 -76.0853 86° East 551 634 32,800 -532 Descending Cleveland Center
Mon 05:39:37 PM 42.5058 -75.8831 90° East 542 624 31,900 -968 Descending Cleveland Center
Mon 05:40:39 PM 42.5033 -75.6819 91° East 540 621 30,800 -1,016 Descending Cleveland Center
Mon 05:41:41 PM 42.4992 -75.4806 92° East 539 620 29,800 -1,016 Descending Cleveland Center
Mon 05:42:43 PM 42.4933 -75.2403 92° East 536 617 28,700 -968 Descending Cleveland Center
Mon 05:43:45 PM 42.4886 -75.0403 92° East 536 617 27,800 -1,727 Descending Cleveland Center
Mon 05:45:02 PM 42.4814 -74.7931 92° East 539 620 24,700 -2,321 Descending Boston Center
Mon 05:46:02 PM 42.4792 -74.5958 91° East 520 598 22,500 -1,790 Descending Boston Center
Mon 05:47:06 PM 42.4822 -74.4039 89° East 508 585 21,000 -1,355 Descending Boston Center
Mon 05:48:06 PM 42.4847 -74.2167 89° East 495 570 19,700 -1,438 Descending Boston Center
Mon 05:49:07 PM 42.4889 -73.9983 88° East 479 551 18,100 -1,091 Descending Boston Center
Mon 05:50:07 PM 42.4844 -73.8219 92° East 473 544 17,500 -1,131 Descending Boston Center
Mon 05:51:09 PM 42.4431 -73.6556 109° East 468 539 15,800 -1,663 Descending Boston Center
Mon 05:51:48 PM 42.4056 -73.5425 114° Southeast 458 527 14,700 -1,895 Descending Boston Center
Mon 05:52:06 PM 42.3897 -73.4928 113° Southeast 459 528 14,000 -2,286 Descending Boston Center
Mon 05:52:09 PM 42.3889 -73.4858 99° East 460 529 13,900 -1,500 Descending Boston Center
Mon 05:53:06 PM 42.3411 -73.3403 114° Southeast 420 483 12,500 -1,429 Descending Boston Center
Mon 05:53:12 PM 42.3406 -73.3350 98° East 444 511 12,400 -968 Descending Boston Center
Mon 05:54:08 PM 42.3006 -73.2000 112° Southeast 382 440 11,500 -968 Descending Boston Center
Mon 05:54:14 PM 42.3000 -73.1894 94° East 402 463 11,400 -1,000 Descending Boston Center
Mon 05:55:08 PM 42.2669 -73.0683 110° East 340 391 10,500 -1,100 Descending Boston Center
Mon 05:55:14 PM 42.2681 -73.0628 75° East 360 414 10,300 -1,881 Descending Boston Center
Mon 05:56:15 PM 42.2361 -72.9481 111° Southeast 330 380 8,400 -1,826 Descending Boston Center
Mon 05:57:09 PM 42.2064 -72.8428 111° Southeast 306 352 6,800 -1,900 Descending Boston Center
Mon 05:57:15 PM 42.2033 -72.8308 109° East 312 359 6,500 -1,548 Descending Boston Center
Mon 05:58:11 PM 42.1756 -72.7389 112° Southeast 282 325 5,200 -1,548 Descending Boston Center
Mon 05:58:17 PM 42.1722 -72.7300 117° Southeast 292 336 4,900 -1,475 Descending Boston Center
Mon 05:59:12 PM 42.1228 -72.6792 143° Southeast 256 295 3,700 -1,279 Descending Boston Center
Mon 05:59:18 PM 42.1153 -72.6706 140° Southeast 259 298 3,600 -800 Descending Boston Center
Mon 06:00:12 PM 42.0692 -72.6222 142° Southeast 217 250 2,900 -800 Descending Boston Center
Mon 06:00:18 PM 42.0653 -72.6172 136° Southeast 231 266 2,800 -689 Descending Boston Center
Mon 06:01:13 PM 42.0256 -72.5922 155° Southeast 156 180 2,200 -656 Descending Boston Center
Mon 06:01:22 PM 42.0233 -72.5919 175° South 165 190 2,100 -800 Descending Boston Center
Mon 06:02:13 PM 41.9906 -72.6172 210° Southwest 133 153 1,400 -800 Descending Boston Center
Mon 06:02:22 PM 41.9881 -72.6228 239° Southwest 141 162 1,300 -700 Descending Boston Center
Mon 06:03:13 PM 41.9658 -72.6547 227° Southwest 132 152 700 -689 Descending Boston Center
Mon 06:03:23 PM 41.9619 -72.6575 208° Southwest 134 154 600 -429 Descending Boston Center
Mon 06:04:23 PM 41.9342 -72.6933 224° Southwest 133 153 200 -400 Descending Boston Center
Mon 06:06:00 PM 41.9333 -72.6833 North  Level FlightAware Approximate

Login

Don't have an account? Register now (free) for customized features, flight alerts, and more!